Time;durP1;ratioP1;P1;durP2;ratioP2;P2;SDS_P1;SDS_P2;PMS_P1;PMS_P2;Temp;Humidity;BMP_temperature;BMP_pressure;BME280_temperature;BME280_humidity;BME280_pressure;Samples;Min_cycle;Max_cycle;Signal;HPM_P1;HPM_P2
2023/12/12 00:00:30;;;;;;;112.90;38.65;;;;;;;3.80;90.64;99627.19;5051290;28;20020;-38
2023/12/12 00:03:04;;;;;;;96.05;35.60;;;;;;;4.04;89.93;99613.25;5050742;28;20024;-41
2023/12/12 00:05:29;;;;;;;81.80;32.38;;;;;;;4.04;91.03;99610.59;5050978;28;20106;-40
2023/12/12 00:07:55;;;;;;;75.20;32.15;;;;;;;3.52;91.26;99604.63;5050972;28;20547;-38
2023/12/12 00:10:21;;;;;;;77.30;32.35;;;;;;;3.02;93.00;99594.09;5051041;28;20025;-38
2023/12/12 00:12:46;;;;;;;73.95;30.10;;;;;;;2.98;92.66;99588.31;5051154;28;20032;-38
2023/12/12 00:15:11;;;;;;;76.35;32.60;;;;;;;2.99;93.35;99581.25;5050937;28;20033;-39
2023/12/12 00:17:38;;;;;;;83.50;32.58;;;;;;;3.16;94.44;99583.00;5051326;28;20019;-39
2023/12/12 00:20:08;;;;;;;85.03;34.30;;;;;;;3.90;92.24;99581.31;5050926;28;20028;-38
2023/12/12 00:22:33;;;;;;;87.28;34.42;;;;;;;3.85;91.51;99559.91;5051253;28;20103;-39
2023/12/12 00:24:59;;;;;;;78.03;31.92;;;;;;;3.67;92.34;99561.88;5050679;28;20503;-37
2023/12/12 00:27:24;;;;;;;72.90;30.30;;;;;;;3.56;92.39;99562.19;5050624;28;20025;-37
2023/12/12 00:29:49;;;;;;;73.45;29.98;;;;;;;3.50;92.78;99559.22;5051438;28;20018;-41
2023/12/12 00:32:15;;;;;;;71.80;31.13;;;;;;;3.37;92.00;99548.34;5050669;28;20049;-38
2023/12/12 00:34:40;;;;;;;68.82;29.80;;;;;;;3.48;92.47;99548.06;5050623;28;20105;-38
2023/12/12 00:37:05;;;;;;;78.22;30.25;;;;;;;3.32;93.97;99546.19;5050851;28;20021;-38
2023/12/12 00:39:31;;;;;;;70.95;31.60;;;;;;;3.19;93.00;99540.56;5053181;28;20453;-36
2023/12/12 00:41:57;;;;;;;71.38;29.45;;;;;;;3.18;94.36;99533.69;5054839;28;20096;-38
2023/12/12 00:44:22;;;;;;;82.18;30.90;;;;;;;3.25;93.86;99539.09;5054342;28;20025;-36
2023/12/12 00:46:47;;;;;;;75.75;30.67;;;;;;;3.27;94.33;99534.50;5054564;28;20116;-38
2023/12/12 00:49:13;;;;;;;72.18;29.83;;;;;;;3.29;94.28;99529.91;5054509;28;20021;-38
2023/12/12 00:51:38;;;;;;;75.78;30.40;;;;;;;3.20;93.68;99538.75;5054503;28;20032;-36
2023/12/12 00:54:04;;;;;;;67.53;27.75;;;;;;;3.01;93.93;99532.81;5054268;28;20100;-36
2023/12/12 00:56:30;;;;;;;71.30;28.98;;;;;;;2.98;94.54;99556.78;5054594;28;20021;-39
2023/12/12 00:58:55;;;;;;;71.68;30.73;;;;;;;3.01;94.79;99558.25;5054284;28;20028;-39
2023/12/12 01:01:20;;;;;;;78.05;31.42;;;;;;;3.32;93.31;99546.19;5054398;28;20056;-39
2023/12/12 01:03:46;;;;;;;74.80;30.85;;;;;;;3.58;91.93;99550.53;5054500;28;20381;-39
2023/12/12 01:06:24;;;;;;;70.10;30.02;;;;;;;3.21;92.32;99554.38;5054098;28;20032;-37
2023/12/12 01:08:50;;;;;;;75.72;28.48;;;;;;;2.99;92.01;99554.97;5054359;28;20028;-39
2023/12/12 01:11:15;;;;;;;65.03;28.13;;;;;;;2.66;94.26;99566.16;5054345;28;20074;-39
2023/12/12 01:13:41;;;;;;;72.68;28.75;;;;;;;2.44;95.56;99564.09;5054068;28;20037;-40
2023/12/12 01:16:06;;;;;;;83.03;29.73;;;;;;;2.61;95.27;99557.09;5053968;28;20029;-38
2023/12/12 01:18:32;;;;;;;76.75;29.88;;;;;;;2.56;95.12;99557.59;5053885;28;20449;-39
2023/12/12 01:20:57;;;;;;;75.15;29.13;;;;;;;2.70;93.97;99551.75;5052626;28;20016;-39
2023/12/12 01:23:23;;;;;;;76.55;28.10;;;;;;;2.64;94.00;99546.28;5053847;28;20415;-38
2023/12/12 01:25:48;;;;;;;79.93;30.60;;;;;;;2.76;93.66;99557.34;5053955;28;20035;-39
2023/12/12 01:28:13;;;;;;;77.00;29.63;;;;;;;2.69;93.47;99555.34;5053594;28;20107;-39
2023/12/12 01:30:39;;;;;;;77.32;29.23;;;;;;;2.67;93.50;99552.06;5053527;28;20052;-39
2023/12/12 01:33:04;;;;;;;78.43;28.98;;;;;;;3.00;91.97;99539.03;5053712;28;20049;-40
2023/12/12 01:35:30;;;;;;;74.70;28.27;;;;;;;2.42;92.62;99532.72;5053750;28;20057;-37
2023/12/12 01:37:55;;;;;;;65.45;27.15;;;;;;;2.52;93.51;99538.69;5053597;28;20031;-37
2023/12/12 01:40:20;;;;;;;67.28;26.63;;;;;;;2.40;94.07;99539.94;5053770;28;20397;-39
2023/12/12 01:42:46;;;;;;;64.25;26.52;;;;;;;2.64;94.06;99533.16;5053310;28;20024;-39
2023/12/12 01:45:11;;;;;;;58.92;24.95;;;;;;;2.53;93.82;99528.97;5053644;28;20056;-40
2023/12/12 01:47:37;;;;;;;71.80;27.15;;;;;;;2.27;94.03;99518.53;5053275;28;20033;-40
2023/12/12 01:50:03;;;;;;;51.72;24.25;;;;;;;2.07;95.39;99536.28;5052623;28;20029;-39
2023/12/12 01:52:28;;;;;;;54.65;24.92;;;;;;;2.18;95.27;99535.19;5053058;28;20389;-39
2023/12/12 01:54:54;;;;;;;58.55;25.88;;;;;;;2.25;95.30;99542.31;5053236;28;20102;-39
2023/12/12 01:57:21;;;;;;;67.50;27.60;;;;;;;2.45;93.67;99531.59;5053203;28;20025;-40
2023/12/12 01:59:48;;;;;;;64.45;26.15;;;;;;;2.20;94.90;99531.44;5053760;28;20031;-38
2023/12/12 02:02:17;;;;;;;60.47;25.40;;;;;;;2.26;95.03;99520.31;5053216;28;20033;-37
2023/12/12 02:04:45;;;;;;;63.92;26.40;;;;;;;2.14;96.50;99522.38;5053130;28;20025;-39
2023/12/12 02:07:12;;;;;;;64.63;27.45;;;;;;;2.39;95.75;99516.44;5053134;28;20033;-39
2023/12/12 02:09:39;;;;;;;62.78;25.83;;;;;;;2.27;95.72;99508.03;5052862;28;20154;-39
2023/12/12 02:12:04;;;;;;;62.65;26.55;;;;;;;2.28;96.75;99513.09;5052933;28;20036;-39
2023/12/12 02:14:31;;;;;;;61.28;27.25;;;;;;;2.53;94.77;99507.97;5052716;28;20037;-37
2023/12/12 02:16:56;;;;;;;63.03;26.90;;;;;;;2.33;94.49;99512.66;5053070;28;20017;-40
2023/12/12 02:19:22;;;;;;;62.95;26.50;;;;;;;2.33;94.17;99513.47;5052797;28;20031;-37
2023/12/12 02:21:47;;;;;;;64.15;24.88;;;;;;;2.26;94.87;99506.34;5053056;28;20135;-36
2023/12/12 02:24:12;;;;;;;68.40;26.55;;;;;;;2.23;95.39;99497.00;5052902;28;20060;-39
2023/12/12 02:26:38;;;;;;;64.82;25.42;;;;;;;2.23;94.25;99496.16;5051203;28;20381;-38
2023/12/12 02:29:04;;;;;;;59.65;25.25;;;;;;;2.36;94.12;99478.16;5052503;28;20122;-39
2023/12/12 02:31:29;;;;;;;63.95;23.50;;;;;;;2.26;93.53;99480.91;5052716;28;20043;-39
2023/12/12 02:33:54;;;;;;;61.95;23.65;;;;;;;2.11;93.76;99467.56;5052263;28;20533;-39
2023/12/12 02:36:21;;;;;;;65.65;24.60;;;;;;;2.20;93.92;99471.03;5052457;28;20043;-40
2023/12/12 02:38:46;;;;;;;59.45;23.15;;;;;;;2.02;92.50;99470.28;5052306;28;20149;-39
2023/12/12 02:41:11;;;;;;;56.22;23.38;;;;;;;2.18;94.60;99467.75;5052569;28;20024;-39
2023/12/12 02:43:37;;;;;;;66.30;25.55;;;;;;;2.25;92.90;99463.53;5052106;28;20385;-40
2023/12/12 02:46:02;;;;;;;66.07;25.60;;;;;;;1.98;93.91;99456.66;5052353;28;20059;-38
2023/12/12 02:48:28;;;;;;;66.22;25.45;;;;;;;2.13;93.68;99451.63;5052248;28;20542;-39
2023/12/12 02:50:53;;;;;;;65.63;25.48;;;;;;;2.35;91.15;99455.53;5052330;28;20104;-39
2023/12/12 02:53:19;;;;;;;61.25;25.15;;;;;;;2.23;89.54;99449.75;5052118;28;20059;-40
2023/12/12 02:55:44;;;;;;;59.15;24.55;;;;;;;1.80;91.60;99456.69;5052329;28;20016;-40
2023/12/12 02:58:09;;;;;;;60.92;23.42;;;;;;;2.63;88.67;99460.59;5052141;28;20032;-40
2023/12/12 03:00:35;;;;;;;57.58;23.38;;;;;;;2.53;87.30;99485.16;5051796;28;20032;-40
2023/12/12 03:03:00;;;;;;;64.28;25.30;;;;;;;2.69;84.97;99504.59;5051705;28;20163;-38
2023/12/12 03:05:25;;;;;;;68.03;25.58;;;;;;;2.29;86.10;99517.38;5051998;28;20025;-39
2023/12/12 03:07:51;;;;;;;68.90;26.50;;;;;;;2.71;90.24;99521.84;5052029;28;20025;-39
2023/12/12 03:10:16;;;;;;;65.47;26.40;;;;;;;2.80;91.06;99538.50;5051794;28;20047;-39
2023/12/12 03:12:41;;;;;;;60.15;25.25;;;;;;;3.60;89.12;99534.53;5052022;28;20028;-40
2023/12/12 03:15:07;;;;;;;62.50;25.83;;;;;;;4.18;85.80;99535.38;5051942;28;20025;-39
2023/12/12 03:17:32;;;;;;;408.40;41.17;;;;;;;4.06;88.99;99530.44;5051912;28;20032;-40
2023/12/12 03:19:58;;;;;;;64.43;25.90;;;;;;;2.95;89.60;99543.94;5051703;28;20396;-39
2023/12/12 03:22:23;;;;;;;52.42;23.02;;;;;;;2.62;92.30;99538.56;5051598;28;20021;-39
2023/12/12 03:24:48;;;;;;;53.03;23.20;;;;;;;2.41;92.88;99512.69;5051577;28;20032;-39
2023/12/12 03:27:14;;;;;;;61.75;25.13;;;;;;;2.38;94.28;99518.25;5051209;28;20577;-37
2023/12/12 03:29:39;;;;;;;66.47;26.25;;;;;;;3.28;92.29;99515.13;5051483;28;20021;-37
2023/12/12 03:32:05;;;;;;;54.17;22.23;;;;;;;2.67;91.66;99540.72;5051448;28;20501;-38
2023/12/12 03:34:30;;;;;;;54.97;22.38;;;;;;;2.22;91.83;99547.84;5051568;28;20033;-40
2023/12/12 03:36:55;;;;;;;58.20;23.58;;;;;;;2.04;93.46;99528.72;5030183;28;20028;-27
2023/12/12 03:39:21;;;;;;;59.58;24.75;;;;;;;2.18;94.60;99528.13;5041635;28;20546;-26
2023/12/12 03:41:46;;;;;;;53.13;22.90;;;;;;;2.87;93.14;99547.38;5051463;28;20021;-27
2023/12/12 03:44:12;;;;;;;60.90;26.00;;;;;;;2.54;93.86;99552.47;5051495;28;20029;-27
2023/12/12 03:46:37;;;;;;;63.90;25.42;;;;;;;2.27;94.56;99558.72;5051429;28;20050;-26
2023/12/12 03:49:02;;;;;;;61.10;25.52;;;;;;;2.38;95.11;99534.03;5051227;28;20128;-27
2023/12/12 03:51:28;;;;;;;65.65;26.25;;;;;;;2.62;95.43;99532.50;5051063;28;20441;-26
2023/12/12 03:53:53;;;;;;;71.55;27.65;;;;;;;2.54;95.26;99530.66;5051476;28;20049;-26
2023/12/12 03:56:18;;;;;;;69.78;28.50;;;;;;;2.43;95.07;99533.53;5051016;28;20032;-26
2023/12/12 03:58:45;;;;;;;67.70;26.50;;;;;;;2.62;94.51;99541.19;5051261;28;20048;-26
2023/12/12 04:01:10;;;;;;;69.30;27.75;;;;;;;2.58;94.15;99552.19;5051087;28;20025;-27
2023/12/12 04:03:36;;;;;;;72.90;27.23;;;;;;;2.55;93.90;99542.78;5051215;28;20043;-27
2023/12/12 04:06:05;;;;;;;72.25;26.50;;;;;;;2.57;93.55;99538.22;5051060;28;20388;-27
2023/12/12 04:08:30;;;;;;;63.15;26.35;;;;;;;2.52;95.51;99530.78;5050836;28;20036;-27
2023/12/12 04:10:55;;;;;;;63.95;26.55;;;;;;;2.52;95.46;99524.72;5050794;28;20021;-27
2023/12/12 04:13:22;;;;;;;68.63;26.95;;;;;;;2.56;95.11;99514.72;5051005;28;20469;-27
2023/12/12 04:15:47;;;;;;;69.95;28.27;;;;;;;2.68;95.86;99516.91;5051238;28;20082;-27
2023/12/12 04:18:12;;;;;;;66.95;27.88;;;;;;;2.66;95.57;99508.34;5050495;28;20435;-40
2023/12/12 04:20:38;;;;;;;67.95;27.38;;;;;;;2.65;94.50;99513.78;5050894;28;20031;-40
2023/12/12 04:23:04;;;;;;;71.88;27.98;;;;;;;2.37;96.58;99503.47;5050519;28;20442;-40
2023/12/12 04:25:29;;;;;;;68.97;25.60;;;;;;;2.39;96.01;99500.69;5050160;28;20079;-40
2023/12/12 04:27:55;;;;;;;70.22;26.73;;;;;;;2.51;95.35;99492.38;5050406;28;20025;-40
2023/12/12 04:30:20;;;;;;;68.63;28.65;;;;;;;2.58;95.27;99494.38;5050090;28;20048;-40
2023/12/12 04:32:45;;;;;;;72.55;29.75;;;;;;;2.46;96.35;99513.03;5049898;28;20052;-40
2023/12/12 04:35:11;;;;;;;71.05;27.55;;;;;;;2.55;95.32;99516.50;5048883;28;20040;-40
2023/12/12 04:37:37;;;;;;;75.60;28.30;;;;;;;2.19;95.81;99511.41;5050342;28;20432;-40
2023/12/12 04:40:02;;;;;;;74.55;28.17;;;;;;;2.05;99.28;99515.41;5050499;28;20485;-40
2023/12/12 04:42:28;;;;;;;70.38;27.77;;;;;;;2.22;96.97;99516.34;5050304;28;20025;-39
2023/12/12 04:44:54;;;;;;;69.90;27.58;;;;;;;2.24;96.10;99535.41;5049933;28;20174;-40
2023/12/12 04:47:19;;;;;;;74.47;29.35;;;;;;;2.49;95.06;99511.91;5049683;28;20094;-38
2023/12/12 04:49:45;;;;;;;79.45;29.50;;;;;;;2.60;95.29;99534.44;5049350;28;20023;-38
2023/12/12 04:52:10;;;;;;;75.97;28.67;;;;;;;2.80;92.91;99541.13;5049839;28;20021;-41
2023/12/12 04:54:36;;;;;;;70.07;28.13;;;;;;;2.71;92.37;99534.19;5049779;28;20028;-40
2023/12/12 04:57:01;;;;;;;70.93;28.23;;;;;;;2.59;93.96;99538.88;5049692;28;20405;-40
2023/12/12 04:59:26;;;;;;;76.70;29.13;;;;;;;3.16;90.55;99538.28;5049663;28;20021;-39
2023/12/12 05:01:52;;;;;;;72.00;29.35;;;;;;;3.42;87.61;99537.34;5049791;28;20025;-40
2023/12/12 05:04:17;;;;;;;77.05;29.95;;;;;;;3.70;85.05;99520.25;5049809;28;20025;-39
2023/12/12 05:06:43;;;;;;;85.95;30.08;;;;;;;3.27;87.67;99518.72;5049659;28;20021;-40
2023/12/12 05:09:08;;;;;;;80.82;30.77;;;;;;;3.20;87.53;99512.47;5049766;28;20017;-39
2023/12/12 05:11:34;;;;;;;80.05;30.13;;;;;;;3.54;86.94;99530.75;5049646;28;20051;-40
2023/12/12 05:13:59;;;;;;;89.18;31.55;;;;;;;3.26;89.58;99540.78;5050312;28;20021;-41
2023/12/12 05:16:25;;;;;;;74.20;30.90;;;;;;;3.07;90.50;99542.69;5049285;28;20033;-40
2023/12/12 05:18:51;;;;;;;79.15;29.85;;;;;;;3.07;89.22;99540.06;5049650;28;20096;-40
2023/12/12 05:21:21;;;;;;;84.82;30.80;;;;;;;3.16;89.32;99538.28;5049371;28;20092;-38
2023/12/12 05:23:46;;;;;;;84.32;30.30;;;;;;;3.45;88.44;99537.84;5047410;28;20056;-38
2023/12/12 05:26:11;;;;;;;79.82;30.75;;;;;;;3.57;85.50;99543.59;5053695;28;20059;-39
2023/12/12 05:28:37;;;;;;;79.47;29.05;;;;;;;3.45;86.41;99542.28;5053630;28;20045;-37
2023/12/12 05:31:03;;;;;;;77.15;29.55;;;;;;;3.42;86.14;99532.88;5053758;28;20104;-41
2023/12/12 05:33:28;;;;;;;78.45;29.95;;;;;;;3.84;84.03;99541.66;5053121;28;20052;-39
2023/12/12 05:35:53;;;;;;;78.75;31.42;;;;;;;4.05;82.29;99544.59;5052910;28;20029;-39
2023/12/12 05:38:19;;;;;;;77.90;30.38;;;;;;;3.54;83.51;99543.91;5053030;28;20382;-39
2023/12/12 05:40:44;;;;;;;80.40;31.10;;;;;;;3.50;84.79;99546.06;5053710;28;20056;-39
2023/12/12 05:43:09;;;;;;;75.65;29.55;;;;;;;2.80;87.08;99540.28;5053357;28;20127;-39
2023/12/12 05:45:35;;;;;;;77.65;30.60;;;;;;;3.08;87.92;99533.78;5053493;28;20025;-39
2023/12/12 05:48:03;;;;;;;68.63;27.77;;;;;;;3.16;87.06;99546.19;5053044;28;20040;-39
2023/12/12 05:50:29;;;;;;;75.97;30.00;;;;;;;2.96;89.38;99553.50;5053433;28;20116;-40
2023/12/12 05:52:54;;;;;;;74.65;29.52;;;;;;;3.04;86.79;99560.56;5051923;28;20032;-40
2023/12/12 05:55:19;;;;;;;78.25;30.08;;;;;;;3.03;87.37;99565.03;5053405;28;20025;-38
2023/12/12 05:57:45;;;;;;;91.78;32.83;;;;;;;3.16;88.67;99575.09;5052752;28;20021;-40
2023/12/12 06:00:10;;;;;;;78.72;31.65;;;;;;;4.43;92.47;99555.41;5053055;28;20029;-39
2023/12/12 06:02:36;;;;;;;87.80;31.92;;;;;;;4.65;87.41;99558.31;5053027;28;20389;-37
2023/12/12 06:05:07;;;;;;;72.40;31.20;;;;;;;4.74;86.21;99562.59;5052959;28;20024;-38
2023/12/12 06:07:32;;;;;;;84.15;33.53;;;;;;;4.93;84.66;99565.78;5053698;28;20029;-39
2023/12/12 06:09:58;;;;;;;78.18;31.48;;;;;;;4.18;87.47;99573.06;5046711;28;20032;-42
2023/12/12 06:12:24;;;;;;;78.93;31.63;;;;;;;3.66;88.11;99568.94;5038143;28;20028;-39
2023/12/12 06:14:50;;;;;;;70.20;30.58;;;;;;;3.29;90.03;99566.72;5048988;28;20137;-41
2023/12/12 06:17:15;;;;;;;71.40;32.10;;;;;;;3.00;88.82;99565.31;5053548;28;20096;-45
2023/12/12 06:19:40;;;;;;;79.10;31.23;;;;;;;3.02;91.23;99580.94;5053571;28;20033;-43
2023/12/12 06:22:07;;;;;;;88.05;35.10;;;;;;;3.84;92.42;99576.69;5047393;28;20033;-39
2023/12/12 06:24:33;;;;;;;76.57;33.90;;;;;;;4.55;90.27;99582.25;5037816;28;20469;-38
2023/12/12 06:26:58;;;;;;;85.32;33.50;;;;;;;4.36;89.72;99577.31;5052371;28;20480;-40
2023/12/12 06:29:23;;;;;;;79.93;31.95;;;;;;;4.35;89.99;99578.31;5052311;28;20123;-45
2023/12/12 06:31:49;;;;;;;69.38;31.60;;;;;;;4.45;89.52;99577.13;5051136;28;20041;-40
2023/12/12 06:34:15;;;;;;;85.88;34.40;;;;;;;4.68;88.48;99573.78;5050659;28;20024;-40
2023/12/12 06:36:40;;;;;;;80.05;32.40;;;;;;;4.82;88.01;99567.00;5050885;28;20028;-40
2023/12/12 06:39:09;;;;;;;70.05;31.25;;;;;;;5.00;88.35;99564.13;5052491;28;20051;-40
2023/12/12 06:41:35;;;;;;;74.38;31.40;;;;;;;4.91;88.18;99565.94;5051654;28;20024;-36
2023/12/12 06:44:00;;;;;;;79.50;33.25;;;;;;;5.10;88.59;99575.28;5050248;28;20448;-42
2023/12/12 06:46:26;;;;;;;80.70;34.75;;;;;;;5.66;86.22;99575.94;5051066;28;20111;-40
2023/12/12 06:48:51;;;;;;;78.75;33.30;;;;;;;6.33;82.53;99568.34;5050562;28;20413;-41
2023/12/12 06:51:16;;;;;;;69.18;30.30;;;;;;;6.13;82.08;99565.38;5050881;28;20107;-39
2023/12/12 06:53:42;;;;;;;69.88;31.00;;;;;;;6.11;83.42;99568.22;5050979;28;20037;-39
2023/12/12 06:56:09;;;;;;;71.65;29.42;;;;;;;6.23;83.02;99572.06;5052450;28;20484;-41
2023/12/12 06:58:34;;;;;;;71.35;30.50;;;;;;;6.48;80.56;99571.00;5052423;28;20066;-40
2023/12/12 07:01:00;;;;;;;65.75;31.63;;;;;;;6.71;78.43;99571.75;5052404;28;20040;-41
2023/12/12 07:03:25;;;;;;;75.15;32.55;;;;;;;6.40;79.28;99571.91;5052243;28;20213;-42
2023/12/12 07:05:51;;;;;;;89.00;36.35;;;;;;;5.86;81.73;99568.41;5052192;28;20027;-40
2023/12/12 07:08:20;;;;;;;104.35;41.70;;;;;;;5.57;83.29;99570.91;5051894;28;20465;-39
2023/12/12 07:10:46;;;;;;;;;;;;;;;5.53;83.71;99574.91;5051734;28;20029;-41
2023/12/12 07:13:12;;;;;;;105.60;43.80;;;;;;;5.19;84.07;99576.06;5050638;28;20024;-41
2023/12/12 07:15:38;;;;;;;158.73;59.92;;;;;;;5.02;84.76;99578.78;5051123;28;20032;-40
2023/12/12 07:18:07;;;;;;;206.88;75.03;;;;;;;4.92;87.22;99593.16;5051223;28;20151;-43
2023/12/12 07:20:33;;;;;;;189.15;72.28;;;;;;;4.77;86.15;99604.41;5050900;28;20059;-40
2023/12/12 07:22:58;;;;;;;145.73;54.55;;;;;;;4.60;86.68;99602.81;5051439;28;20068;-40
2023/12/12 07:25:24;;;;;;;136.57;51.65;;;;;;;4.49;87.76;99611.88;5050263;28;20056;-40
2023/12/12 07:27:50;;;;;;;129.18;50.45;;;;;;;4.52;87.77;99611.56;5050264;28;20382;-41
2023/12/12 07:30:16;;;;;;;140.07;52.78;;;;;;;4.41;87.33;99611.91;5051231;28;20489;-40
2023/12/12 07:32:41;;;;;;;143.73;56.28;;;;;;;4.25;88.65;99624.09;5051251;28;20052;-41
2023/12/12 07:35:07;;;;;;;105.10;40.30;;;;;;;3.80;89.63;99633.28;5051409;28;20036;-40
2023/12/12 07:37:33;;;;;;;99.85;37.85;;;;;;;3.82;89.44;99633.13;5051382;28;20017;-41
2023/12/12 07:39:58;;;;;;;81.63;33.72;;;;;;;3.84;90.29;99624.06;5051183;28;20036;-40
2023/12/12 07:42:24;;;;;;;79.75;33.45;;;;;;;3.95;89.33;99636.09;5051465;28;20108;-43
2023/12/12 07:44:49;;;;;;;82.90;33.50;;;;;;;4.00;88.91;99646.97;5051116;28;20021;-43
2023/12/12 07:47:14;;;;;;;76.05;32.72;;;;;;;3.96;88.77;99642.19;5050698;28;20047;-42
2023/12/12 07:49:40;;;;;;;73.75;30.98;;;;;;;3.95;89.05;99648.44;5051263;28;20078;-41
2023/12/12 07:52:06;;;;;;;76.88;31.77;;;;;;;3.90;89.53;99651.56;5051142;28;20599;-40
2023/12/12 07:54:31;;;;;;;79.72;31.17;;;;;;;3.74;89.57;99651.53;5050946;28;20037;-39
2023/12/12 07:56:57;;;;;;;76.15;32.05;;;;;;;3.69;89.99;99637.06;5050772;28;20028;-40
2023/12/12 07:59:22;;;;;;;81.68;32.35;;;;;;;3.66;90.34;99636.56;5051346;28;20457;-40
2023/12/12 08:01:47;;;;;;;71.65;30.45;;;;;;;3.87;91.57;99633.47;5051082;28;20423;-37
2023/12/12 08:04:13;;;;;;;81.82;31.55;;;;;;;4.09;89.80;99629.34;5050976;28;20029;-40
2023/12/12 08:06:38;;;;;;;74.82;30.73;;;;;;;3.94;89.93;99602.88;5051036;28;20036;-40
2023/12/12 08:09:03;;;;;;;78.13;31.20;;;;;;;4.10;90.36;99637.09;5051028;28;20566;-41
2023/12/12 08:11:29;;;;;;;71.43;29.33;;;;;;;4.00;89.29;99628.53;5051055;28;20035;-44
2023/12/12 08:13:54;;;;;;;76.82;29.98;;;;;;;3.63;91.02;99629.78;5051021;28;20060;-41
2023/12/12 08:16:22;;;;;;;74.70;29.05;;;;;;;3.80;90.97;99614.84;5051102;28;20025;-42
2023/12/12 08:18:47;;;;;;;79.55;30.88;;;;;;;3.83;91.18;99626.88;5050908;28;20032;-46
2023/12/12 08:21:12;;;;;;;71.10;28.38;;;;;;;3.97;89.36;99628.03;5050703;28;20021;-43
2023/12/12 08:23:41;;;;;;;69.75;28.15;;;;;;;4.04;88.68;99631.69;5050880;28;20100;-44
2023/12/12 08:26:06;;;;;;;76.70;30.25;;;;;;;4.08;90.17;99644.34;5050996;28;20029;-40
2023/12/12 08:28:32;;;;;;;82.65;31.38;;;;;;;4.25;89.37;99636.44;5050699;28;20052;-41
2023/12/12 08:30:57;;;;;;;76.15;31.25;;;;;;;4.38;88.36;99635.94;5050568;28;20461;-43
2023/12/12 08:33:23;;;;;;;82.53;30.83;;;;;;;4.35;88.93;99633.66;5050594;28;20048;-42
2023/12/12 08:35:49;;;;;;;80.85;31.63;;;;;;;4.10;89.53;99631.81;5050735;28;20031;-40
2023/12/12 08:38:14;;;;;;;85.03;30.55;;;;;;;4.07;90.63;99631.31;5050642;28;20108;-43
2023/12/12 08:40:39;;;;;;;75.63;31.10;;;;;;;4.34;90.23;99630.19;5050605;28;20029;-42
2023/12/12 08:43:05;;;;;;;89.18;30.33;;;;;;;4.69;89.27;99628.97;5050658;28;20021;-42
2023/12/12 08:45:30;;;;;;;83.97;31.50;;;;;;;4.76;87.18;99629.16;5050737;28;20479;-41
2023/12/12 08:47:55;;;;;;;72.30;28.58;;;;;;;5.07;88.23;99618.66;5050626;28;20111;-40
2023/12/12 08:50:21;;;;;;;72.50;30.02;;;;;;;5.19;86.14;99627.00;5050369;28;20477;-40
2023/12/12 08:52:47;;;;;;;69.07;28.08;;;;;;;5.35;85.49;99620.84;5050668;28;20029;-42
2023/12/12 08:55:13;;;;;;;73.32;27.63;;;;;;;5.53;84.77;99612.66;5050441;28;20087;-40
2023/12/12 08:57:39;;;;;;;67.55;28.08;;;;;;;5.73;84.81;99620.13;5050203;28;20492;-39
2023/12/12 09:00:07;;;;;;;67.55;28.73;;;;;;;5.91;84.34;99617.22;5052266;28;20503;-42
2023/12/12 09:02:33;;;;;;;61.20;25.60;;;;;;;6.14;81.81;99622.53;5054344;28;20028;-39
2023/12/12 09:04:58;;;;;;;64.50;27.85;;;;;;;6.23;81.91;99609.06;5054214;28;20500;-41
2023/12/12 09:07:23;;;;;;;65.72;27.50;;;;;;;6.26;82.03;99611.34;5054064;28;20115;-43
2023/12/12 09:09:49;;;;;;;61.15;26.88;;;;;;;6.31;80.53;99605.53;5054130;28;20029;-42
2023/12/12 09:12:15;;;;;;;66.95;27.67;;;;;;;7.02;78.66;99611.22;5054106;28;20341;-41
2023/12/12 09:14:40;;;;;;;64.75;27.42;;;;;;;7.00;79.08;99607.94;5053790;28;20418;-44
2023/12/12 09:17:05;;;;;;;72.57;30.33;;;;;;;7.13;78.46;99603.84;5053818;28;20028;-37
2023/12/12 09:19:31;;;;;;;66.15;31.25;;;;;;;7.22;76.17;99600.91;5053897;28;20025;-42
2023/12/12 09:21:56;;;;;;;64.88;30.38;;;;;;;7.67;75.21;99599.97;5053787;28;20037;-39
2023/12/12 09:24:21;;;;;;;64.63;29.60;;;;;;;7.75;76.28;99594.53;5053615;28;20108;-41
2023/12/12 09:26:47;;;;;;;68.45;28.98;;;;;;;7.79;75.08;99593.19;5053640;28;20098;-45
2023/12/12 09:29:12;;;;;;;64.68;29.92;;;;;;;7.95;75.12;99597.41;5053629;28;20116;-39
2023/12/12 09:31:37;;;;;;;61.15;29.80;;;;;;;8.09;72.98;99585.91;5053469;28;20028;-39
2023/12/12 09:34:03;;;;;;;70.78;30.55;;;;;;;7.80;74.58;99571.78;5053548;28;20041;-41
2023/12/12 09:36:29;;;;;;;66.32;31.02;;;;;;;7.97;74.27;99569.69;5053294;28;20458;-40
2023/12/12 09:38:54;;;;;;;66.65;30.88;;;;;;;8.08;73.83;99571.00;5053093;28;20035;-39
2023/12/12 09:41:23;;;;;;;65.18;29.73;;;;;;;8.18;73.42;99570.69;5053569;28;20025;-41
2023/12/12 09:43:50;;;;;;;65.00;30.35;;;;;;;7.94;74.53;99570.09;5053287;28;20021;-38
2023/12/12 09:46:17;;;;;;;58.40;29.50;;;;;;;7.73;75.85;99560.31;5053260;28;20029;-39
2023/12/12 09:48:47;;;;;;;72.03;29.83;;;;;;;7.74;76.21;99559.28;5053510;28;20032;-43
2023/12/12 09:51:17;;;;;;;60.35;28.05;;;;;;;7.17;79.12;99558.28;5053398;28;20240;-42
2023/12/12 09:53:46;;;;;;;61.88;31.10;;;;;;;7.23;78.38;99556.72;5052966;28;20078;-39
2023/12/12 09:56:15;;;;;;;65.55;30.10;;;;;;;7.56;78.64;99558.94;5053427;28;20043;-40
2023/12/12 09:58:40;;;;;;;66.80;32.10;;;;;;;7.47;77.89;99552.09;5052885;28;20013;-40
2023/12/12 10:01:07;;;;;;;68.75;30.83;;;;;;;7.43;78.03;99554.31;5053401;28;20021;-39
2023/12/12 10:03:32;;;;;;;66.90;30.45;;;;;;;7.40;79.51;99559.97;5053056;28;20029;-39
2023/12/12 10:06:03;;;;;;;70.25;33.47;;;;;;;7.32;78.50;99550.31;5053012;28;20055;-40
2023/12/12 10:08:28;;;;;;;74.72;34.17;;;;;;;7.36;79.11;99548.94;5053091;28;20021;-39
2023/12/12 10:10:54;;;;;;;76.55;33.95;;;;;;;7.75;78.50;99560.09;5052955;28;20036;-37
2023/12/12 10:13:19;;;;;;;72.22;33.17;;;;;;;7.72;78.68;99555.22;5052592;28;20025;-36
2023/12/12 10:15:45;;;;;;;79.32;34.83;;;;;;;8.06;76.61;99548.38;5052540;28;20029;-39
2023/12/12 10:18:10;;;;;;;74.45;33.40;;;;;;;7.86;77.14;99553.50;5052510;28;20040;-39
2023/12/12 10:20:36;;;;;;;78.25;34.10;;;;;;;8.19;76.03;99556.44;5052842;28;20056;-38
2023/12/12 10:23:03;;;;;;;74.47;32.67;;;;;;;8.41;74.64;99554.53;5052668;28;20032;-40
2023/12/12 10:25:30;;;;;;;72.95;33.47;;;;;;;8.35;75.24;99560.63;5052078;28;20020;-38
2023/12/12 10:27:56;;;;;;;76.30;34.88;;;;;;;8.33;75.50;99552.03;5052200;28;20075;-41
2023/12/12 10:30:22;;;;;;;76.53;35.10;;;;;;;8.55;75.22;99552.84;5052582;28;20369;-40
2023/12/12 10:32:51;;;;;;;56.85;25.90;;;;;;;9.62;83.90;99554.06;5052284;28;20047;-39
2023/12/12 10:35:24;;;;;;;71.30;34.08;;;;;;;11.09;66.23;99554.72;5051947;28;20029;-42
2023/12/12 10:37:50;;;;;;;73.90;33.03;;;;;;;10.13;67.15;99542.84;5052509;28;20439;-41
2023/12/12 10:40:19;;;;;;;79.00;34.13;;;;;;;9.67;70.66;99538.34;5052156;28;20029;-40
2023/12/12 10:42:45;;;;;;;77.87;34.87;;;;;;;9.35;71.61;99524.78;5052196;28;20021;-41
2023/12/12 10:45:12;;;;;;;75.53;35.70;;;;;;;9.63;70.27;99528.31;5052089;28;20023;-40
2023/12/12 10:47:58;;;;;;;72.13;35.38;;;;;;;9.56;71.16;99533.63;5052049;28;20036;-42
2023/12/12 10:50:26;;;;;;;78.30;35.60;;;;;;;9.69;70.35;99532.81;5051682;28;20059;-37
2023/12/12 10:52:53;;;;;;;78.25;35.20;;;;;;;9.56;71.59;99529.13;5051632;28;20033;-41
2023/12/12 10:55:19;;;;;;;77.50;35.40;;;;;;;9.27;72.42;99543.56;5051564;28;20025;-39
2023/12/12 10:57:47;;;;;;;74.85;34.45;;;;;;;9.48;71.69;99528.47;5051858;28;20063;-41
2023/12/12 11:00:14;;;;;;;75.90;33.90;;;;;;;9.73;70.63;99536.72;5051732;28;20460;-40
2023/12/12 11:02:44;;;;;;;71.65;34.20;;;;;;;10.10;72.10;99543.25;5051916;28;20095;-41
2023/12/12 11:05:14;;;;;;;68.18;32.95;;;;;;;10.30;68.60;99537.97;5051718;28;20032;-40
2023/12/12 11:07:42;;;;;;;66.95;33.53;;;;;;;10.99;67.61;99540.25;5051680;28;20029;-40
2023/12/12 11:10:10;;;;;;;72.78;34.03;;;;;;;11.75;64.66;99523.44;5051704;28;20021;-39
2023/12/12 11:12:58;;;;;;;67.50;33.58;;;;;;;12.77;60.77;99522.28;5051847;28;20386;-38
2023/12/12 11:15:26;;;;;;;73.55;34.80;;;;;;;13.11;60.07;99524.31;5051743;28;20021;-40
2023/12/12 11:17:52;;;;;;;71.60;34.70;;;;;;;13.57;58.73;99522.09;5051480;28;20477;-41